createdAt,value
2022-12-16T00:00:11.590Z,0.89
2022-12-16T00:01:11.642Z,0.86
2022-12-16T00:02:11.689Z,0.82
2022-12-16T00:03:11.619Z,0.84
2022-12-16T00:04:11.572Z,0.86
2022-12-16T00:05:11.804Z,0.88
2022-12-16T00:06:11.519Z,0.88
2022-12-16T00:07:11.529Z,0.82
2022-12-16T00:08:11.512Z,0.80
2022-12-16T00:09:11.511Z,0.80
2022-12-16T00:10:11.491Z,0.75
2022-12-16T00:11:11.478Z,0.72
2022-12-16T00:12:11.470Z,0.72
2022-12-16T00:13:11.452Z,0.72
2022-12-16T00:14:11.450Z,0.72
2022-12-16T00:15:11.448Z,0.71
2022-12-16T00:16:11.495Z,0.74
2022-12-16T00:17:11.430Z,0.77
2022-12-16T00:18:11.400Z,0.74
2022-12-16T00:19:11.390Z,0.72
2022-12-16T00:20:11.381Z,0.71
2022-12-16T00:21:11.380Z,0.70
2022-12-16T00:22:11.480Z,0.70
2022-12-16T00:23:11.351Z,0.68
2022-12-16T00:24:11.385Z,0.67
2022-12-16T00:25:11.341Z,0.64
2022-12-16T00:26:11.332Z,0.62
2022-12-16T00:27:11.316Z,0.59
2022-12-16T00:28:11.412Z,0.57
2022-12-16T00:29:11.364Z,0.59
2022-12-16T00:30:11.283Z,0.57
2022-12-16T00:31:11.349Z,0.53
2022-12-16T00:32:11.271Z,0.56
2022-12-16T00:33:11.261Z,0.56
2022-12-16T00:34:11.245Z,0.57
2022-12-16T00:35:11.558Z,0.56
2022-12-16T00:36:11.249Z,0.59
2022-12-16T00:37:11.202Z,0.62
2022-12-16T00:38:11.204Z,0.64
2022-12-16T00:39:11.181Z,0.63
2022-12-16T00:40:11.171Z,0.64
2022-12-16T00:41:11.162Z,0.64
2022-12-16T00:42:11.193Z,0.62
2022-12-16T00:43:11.142Z,0.63
2022-12-16T00:44:11.132Z,0.60
2022-12-16T00:45:11.130Z,0.60
2022-12-16T00:46:11.232Z,0.59
2022-12-16T00:47:11.101Z,0.56
2022-12-16T00:48:11.092Z,0.51
2022-12-16T00:49:11.111Z,0.45
2022-12-16T00:50:11.072Z,0.44
2022-12-16T00:51:11.082Z,0.41
2022-12-16T00:52:11.291Z,0.40
2022-12-16T00:53:11.041Z,0.38
2022-12-16T00:54:11.032Z,0.40
2022-12-16T00:55:11.020Z,0.41
2022-12-16T00:56:11.011Z,0.38
2022-12-16T00:57:11.011Z,0.37
2022-12-16T00:58:10.994Z,0.38
2022-12-16T00:59:10.982Z,0.38
2022-12-16T01:00:11.282Z,0.38
2022-12-16T01:01:11.023Z,0.40
2022-12-16T01:02:11.212Z,0.40
2022-12-16T01:03:14.306Z,0.44
2022-12-16T01:04:12.133Z,0.45
2022-12-16T01:05:10.947Z,0.44
2022-12-16T01:06:10.909Z,0.45
2022-12-16T01:07:10.909Z,0.45
2022-12-16T01:08:10.889Z,0.45
2022-12-16T01:09:10.891Z,0.41
2022-12-16T01:10:10.862Z,0.41
2022-12-16T01:11:10.852Z,0.41
2022-12-16T01:12:10.874Z,0.43
2022-12-16T01:13:10.843Z,0.41
2022-12-16T01:14:10.852Z,0.37
2022-12-16T01:15:10.822Z,0.31
2022-12-16T01:16:10.832Z,0.28
2022-12-16T01:17:10.794Z,0.28
2022-12-16T01:18:10.784Z,0.34
2022-12-16T01:19:11.042Z,0.37
2022-12-16T01:20:10.834Z,0.43
2022-12-16T01:21:10.757Z,0.44
2022-12-16T01:22:10.744Z,0.51
2022-12-16T01:23:10.733Z,0.52
2022-12-16T01:24:10.723Z,0.53
2022-12-16T01:25:10.705Z,0.51
2022-12-16T01:26:10.913Z,0.49
2022-12-16T01:27:10.695Z,0.49
2022-12-16T01:28:10.844Z,0.45
2022-12-16T01:29:10.755Z,0.45
2022-12-16T01:30:10.662Z,0.45
2022-12-16T01:31:10.662Z,0.49
2022-12-16T01:32:10.676Z,0.44
2022-12-16T01:33:10.623Z,0.40
2022-12-16T01:34:10.622Z,0.38
2022-12-16T01:35:29.424Z,0.40
2022-12-16T01:36:11.615Z,0.43
2022-12-16T01:37:10.583Z,0.44
2022-12-16T01:38:10.664Z,0.43
2022-12-16T01:39:10.651Z,0.38
2022-12-16T01:40:10.604Z,0.37
2022-12-16T01:41:10.554Z,0.40
2022-12-16T01:42:11.086Z,0.40
2022-12-16T01:43:10.802Z,0.43
2022-12-16T01:44:10.695Z,0.43
2022-12-16T01:45:10.554Z,0.43
2022-12-16T01:46:11.023Z,0.38
2022-12-16T01:47:10.642Z,0.35
2022-12-16T01:48:10.658Z,0.38
2022-12-16T01:49:10.463Z,0.38
2022-12-16T01:50:10.724Z,0.38
2022-12-16T01:51:10.447Z,0.37
2022-12-16T01:52:10.436Z,0.37
2022-12-16T01:53:10.413Z,0.35
2022-12-16T01:54:10.415Z,0.38
2022-12-16T01:55:10.414Z,0.40
2022-12-16T01:56:10.396Z,0.38
2022-12-16T01:57:10.374Z,0.33
2022-12-16T01:58:10.375Z,0.30
2022-12-16T01:59:10.354Z,0.30
2022-12-16T02:00:10.624Z,0.26
2022-12-16T02:01:10.376Z,0.26
2022-12-16T02:02:10.552Z,0.26
2022-12-16T02:03:10.351Z,0.23
2022-12-16T02:04:11.006Z,0.26
2022-12-16T02:05:10.315Z,0.28
2022-12-16T02:06:10.284Z,0.33
2022-12-16T02:07:10.274Z,0.35
2022-12-16T02:08:10.268Z,0.38
2022-12-16T02:09:10.254Z,0.38
2022-12-16T02:10:10.245Z,0.37
2022-12-16T02:11:10.254Z,0.40
2022-12-16T02:12:10.224Z,0.41
2022-12-16T02:13:10.215Z,0.43
2022-12-16T02:14:10.205Z,0.43
2022-12-16T02:15:10.194Z,0.43
2022-12-16T02:16:15.291Z,0.41
2022-12-16T02:17:11.229Z,0.40
2022-12-16T02:18:10.181Z,0.37
2022-12-16T02:19:10.145Z,0.35
2022-12-16T02:20:10.149Z,0.35
2022-12-16T02:21:10.134Z,0.35
2022-12-16T02:22:10.125Z,0.37
2022-12-16T02:23:10.114Z,0.37
2022-12-16T02:24:10.107Z,0.40
2022-12-16T02:25:10.086Z,0.38
2022-12-16T02:26:10.092Z,0.41
2022-12-16T02:27:10.075Z,0.38
2022-12-16T02:28:10.065Z,0.38
2022-12-16T02:29:10.045Z,0.37
2022-12-16T02:30:10.056Z,0.33
2022-12-16T02:31:10.096Z,0.31
2022-12-16T02:32:10.035Z,0.35
2022-12-16T02:33:10.006Z,0.37
2022-12-16T02:34:09.984Z,0.37
2022-12-16T02:35:09.970Z,0.34
2022-12-16T02:36:09.978Z,0.31
2022-12-16T02:37:09.951Z,0.28
2022-12-16T02:38:09.961Z,0.28
2022-12-16T02:39:09.929Z,0.23
2022-12-16T02:40:09.931Z,0.23
2022-12-16T02:41:09.940Z,0.25
2022-12-16T02:42:09.920Z,0.26
2022-12-16T02:43:09.901Z,0.25
2022-12-16T02:44:09.891Z,0.25
2022-12-16T02:45:09.871Z,0.23
2022-12-16T02:46:09.879Z,0.23
2022-12-16T02:47:09.887Z,0.22
2022-12-16T02:48:09.851Z,0.23
2022-12-16T02:49:09.839Z,0.23
2022-12-16T02:50:09.839Z,0.23
2022-12-16T02:51:09.833Z,0.26
2022-12-16T02:52:09.811Z,0.30
2022-12-16T02:53:09.801Z,0.28
2022-12-16T02:54:09.776Z,0.31
2022-12-16T02:55:09.772Z,0.34
2022-12-16T02:56:09.751Z,0.35
2022-12-16T02:57:09.741Z,0.37
2022-12-16T02:58:09.749Z,0.34
2022-12-16T02:59:09.736Z,0.33
2022-12-16T03:00:09.732Z,0.31
2022-12-16T03:01:09.734Z,0.26
2022-12-16T03:02:09.893Z,0.22
2022-12-16T03:03:09.825Z,0.25
2022-12-16T03:04:09.690Z,0.25
2022-12-16T03:05:09.651Z,0.26
2022-12-16T03:06:09.666Z,0.28
2022-12-16T03:07:09.651Z,0.28
2022-12-16T03:08:09.641Z,0.26
2022-12-16T03:09:09.634Z,0.26
2022-12-16T03:10:09.633Z,0.20
2022-12-16T03:11:09.606Z,0.23
2022-12-16T03:12:09.605Z,0.25
2022-12-16T03:13:09.590Z,0.22
2022-12-16T03:14:09.604Z,0.17
2022-12-16T03:15:09.552Z,0.15
2022-12-16T03:16:09.562Z,0.16
2022-12-16T03:17:09.585Z,0.16
2022-12-16T03:18:09.531Z,0.16
2022-12-16T03:19:09.556Z,0.16
2022-12-16T03:20:09.502Z,0.16
2022-12-16T03:21:09.521Z,0.19
2022-12-16T03:22:09.502Z,0.20
2022-12-16T03:23:09.486Z,0.20
2022-12-16T03:24:09.492Z,0.19
2022-12-16T03:25:09.451Z,0.19
2022-12-16T03:26:09.471Z,0.19
2022-12-16T03:27:09.441Z,0.20
2022-12-16T03:28:09.443Z,0.17
2022-12-16T03:29:09.431Z,0.16
2022-12-16T03:30:09.418Z,0.16
2022-12-16T03:31:09.460Z,0.15
2022-12-16T03:32:09.393Z,0.13
2022-12-16T03:33:09.386Z,0.15
2022-12-16T03:34:09.363Z,0.16
2022-12-16T03:35:09.362Z,0.15
2022-12-16T03:36:09.360Z,0.10
2022-12-16T03:37:09.328Z,0.10
2022-12-16T03:38:09.340Z,0.12
2022-12-16T03:39:09.302Z,0.10
2022-12-16T03:40:09.302Z,0.10
2022-12-16T03:41:09.294Z,0.12
2022-12-16T03:42:09.279Z,0.12
2022-12-16T03:43:09.271Z,0.13
2022-12-16T03:44:09.263Z,0.17
2022-12-16T03:45:09.280Z,0.17
2022-12-16T03:46:09.309Z,0.19
2022-12-16T03:47:09.232Z,0.19
2022-12-16T03:48:09.233Z,0.17
2022-12-16T03:49:09.202Z,0.17
2022-12-16T03:50:09.212Z,0.19
2022-12-16T03:51:09.242Z,0.20
2022-12-16T03:52:09.172Z,0.23
2022-12-16T03:53:09.174Z,0.20
2022-12-16T03:54:09.171Z,0.22
2022-12-16T03:55:09.151Z,0.23
2022-12-16T03:56:09.152Z,0.25
2022-12-16T03:57:14.779Z,0.22
2022-12-16T03:58:10.132Z,0.20
2022-12-16T03:59:09.102Z,0.22
2022-12-16T04:00:09.113Z,0.22
2022-12-16T04:01:09.184Z,0.20
2022-12-16T04:02:09.190Z,0.20
2022-12-16T04:03:09.256Z,0.19
2022-12-16T04:04:09.071Z,0.20
2022-12-16T04:05:09.033Z,0.17
2022-12-16T04:06:09.033Z,0.16
2022-12-16T04:07:09.013Z,0.16
2022-12-16T04:08:09.037Z,0.17
2022-12-16T04:09:09.703Z,0.17
2022-12-16T04:10:08.993Z,0.15
2022-12-16T04:11:08.985Z,0.12
2022-12-16T04:12:08.984Z,0.10
2022-12-16T04:13:08.972Z,0.08
2022-12-16T04:14:08.991Z,0.10
2022-12-16T04:15:08.961Z,0.07
2022-12-16T04:16:09.002Z,0.07
2022-12-16T04:17:08.936Z,0.05
2022-12-16T04:18:08.913Z,0.04
2022-12-16T04:19:08.902Z,0.04
2022-12-16T04:20:08.883Z,0.02
2022-12-16T04:21:08.888Z,0.05
2022-12-16T04:22:08.893Z,0.02
2022-12-16T04:23:08.855Z,-0.01
2022-12-16T04:24:08.852Z,0.01
2022-12-16T04:25:08.843Z,-0.02
2022-12-16T04:26:08.833Z,-0.02
2022-12-16T04:27:15.111Z,-0.02
2022-12-16T04:28:09.811Z,0.02
2022-12-16T04:29:08.802Z,0.07
2022-12-16T04:30:08.782Z,0.10
2022-12-16T04:31:08.856Z,0.12
2022-12-16T04:32:08.761Z,0.13
2022-12-16T04:33:08.753Z,0.16
2022-12-16T04:34:08.732Z,0.15
2022-12-16T04:35:08.743Z,0.15
2022-12-16T04:36:08.732Z,0.17
2022-12-16T04:37:08.713Z,0.17
2022-12-16T04:38:08.693Z,0.17
2022-12-16T04:39:08.713Z,0.12
2022-12-16T04:40:08.673Z,0.13
2022-12-16T04:41:08.793Z,0.12
2022-12-16T04:42:08.662Z,0.10
2022-12-16T04:43:08.683Z,0.07
2022-12-16T04:44:08.633Z,0.08
2022-12-16T04:45:08.633Z,0.08
2022-12-16T04:46:08.692Z,0.07
2022-12-16T04:47:08.609Z,0.08
2022-12-16T04:48:08.602Z,0.07
2022-12-16T04:49:08.623Z,0.07
2022-12-16T04:50:08.595Z,0.07
2022-12-16T04:51:08.563Z,0.04
2022-12-16T04:52:08.563Z,0.02
2022-12-16T04:53:08.564Z,0.04
2022-12-16T04:54:08.532Z,0.07
2022-12-16T04:55:08.545Z,0.04
2022-12-16T04:56:08.533Z,0.10
2022-12-16T04:57:08.514Z,0.12
2022-12-16T04:58:08.492Z,0.13
2022-12-16T04:59:08.504Z,0.16
2022-12-16T05:00:08.594Z,0.13
2022-12-16T05:01:08.558Z,0.15
2022-12-16T05:02:08.573Z,0.13
2022-12-16T05:03:08.495Z,0.15
2022-12-16T05:04:08.489Z,0.15
2022-12-16T05:05:08.421Z,0.15
2022-12-16T05:06:08.436Z,0.15
2022-12-16T05:07:08.415Z,0.13
2022-12-16T05:08:08.384Z,0.13
2022-12-16T05:09:08.392Z,0.12
2022-12-16T05:10:08.403Z,0.13
2022-12-16T05:11:08.362Z,0.10
2022-12-16T05:12:08.346Z,0.12
2022-12-16T05:13:08.353Z,0.10
2022-12-16T05:14:08.384Z,0.12
2022-12-16T05:15:08.333Z,0.12
2022-12-16T05:16:08.351Z,0.10
2022-12-16T05:17:08.302Z,0.10
2022-12-16T05:18:08.313Z,0.10
2022-12-16T05:19:08.293Z,0.08
2022-12-16T05:20:08.293Z,0.08
2022-12-16T05:21:08.268Z,0.10
2022-12-16T05:22:08.267Z,0.10
2022-12-16T05:23:08.284Z,0.07
2022-12-16T05:24:08.231Z,0.10
2022-12-16T05:25:08.224Z,0.10
2022-12-16T05:26:08.204Z,0.10
2022-12-16T05:27:08.225Z,0.12
2022-12-16T05:28:08.185Z,0.13
2022-12-16T05:29:08.193Z,0.13
2022-12-16T05:30:08.172Z,0.13
2022-12-16T05:31:08.213Z,0.12
2022-12-16T05:32:08.184Z,0.13
2022-12-16T05:33:08.153Z,0.12
2022-12-16T05:34:08.134Z,0.10
2022-12-16T05:35:08.136Z,0.08
2022-12-16T05:36:08.125Z,0.07
2022-12-16T05:37:08.101Z,0.08
2022-12-16T05:38:08.411Z,0.07
2022-12-16T05:39:08.114Z,0.05
2022-12-16T05:40:08.636Z,0.08
2022-12-16T05:41:08.111Z,0.10
2022-12-16T05:42:08.253Z,0.10
2022-12-16T05:43:10.925Z,0.12
2022-12-16T05:44:09.086Z,0.08
2022-12-16T05:45:08.024Z,0.05
2022-12-16T05:46:08.090Z,0.08
2022-12-16T05:47:08.033Z,0.08
2022-12-16T05:48:07.999Z,0.05
2022-12-16T05:49:08.005Z,0.05
2022-12-16T05:50:07.963Z,0.07
2022-12-16T05:51:07.955Z,0.10
2022-12-16T05:52:07.933Z,0.12
2022-12-16T05:53:08.062Z,0.12
2022-12-16T05:54:08.140Z,0.13
2022-12-16T05:55:08.073Z,0.13
2022-12-16T05:56:07.944Z,0.13
2022-12-16T05:57:07.893Z,0.10
2022-12-16T05:58:07.886Z,0.10
2022-12-16T05:59:07.888Z,0.13
2022-12-16T06:00:07.854Z,0.13
2022-12-16T06:01:07.865Z,0.15
2022-12-16T06:02:07.909Z,0.17
2022-12-16T06:03:07.928Z,0.22
2022-12-16T06:04:10.645Z,0.22
2022-12-16T06:05:08.803Z,0.26
2022-12-16T06:06:07.796Z,0.26
2022-12-16T06:07:07.804Z,0.30
2022-12-16T06:08:07.786Z,0.28
2022-12-16T06:09:07.781Z,0.28
2022-12-16T06:10:07.748Z,0.25
2022-12-16T06:11:07.775Z,0.23
2022-12-16T06:12:07.754Z,0.20
2022-12-16T06:13:07.752Z,0.19
2022-12-16T06:14:07.706Z,0.19
2022-12-16T06:15:07.704Z,0.17
2022-12-16T06:16:09.076Z,0.16
2022-12-16T06:17:07.675Z,0.16
2022-12-16T06:18:07.696Z,0.20
2022-12-16T06:19:07.772Z,0.25
2022-12-16T06:20:07.786Z,0.28
2022-12-16T06:21:07.646Z,0.28
2022-12-16T06:22:07.624Z,0.31
2022-12-16T06:23:07.636Z,0.33
2022-12-16T06:24:07.607Z,0.34
2022-12-16T06:25:07.692Z,0.34
2022-12-16T06:26:07.594Z,0.34
2022-12-16T06:27:07.589Z,0.34
2022-12-16T06:28:07.596Z,0.34
2022-12-16T06:29:07.558Z,0.34
2022-12-16T06:30:07.545Z,0.34
2022-12-16T06:31:07.566Z,0.34
2022-12-16T06:32:07.516Z,0.30
2022-12-16T06:33:07.547Z,0.28
2022-12-16T06:34:07.500Z,0.28
2022-12-16T06:35:07.606Z,0.22
2022-12-16T06:36:07.642Z,0.23
2022-12-16T06:37:07.476Z,0.20
2022-12-16T06:38:07.474Z,0.20
2022-12-16T06:39:07.987Z,0.23
2022-12-16T06:40:07.485Z,0.25
2022-12-16T06:41:07.432Z,0.23
2022-12-16T06:42:07.575Z,0.23
2022-12-16T06:43:07.703Z,0.25
2022-12-16T06:44:07.621Z,0.23
2022-12-16T06:45:07.408Z,0.19
2022-12-16T06:46:07.541Z,0.19
2022-12-16T06:47:07.617Z,0.17
2022-12-16T06:48:07.567Z,0.22
2022-12-16T06:49:07.586Z,0.20
2022-12-16T06:50:07.365Z,0.20
2022-12-16T06:51:07.345Z,0.17
2022-12-16T06:52:07.306Z,0.19
2022-12-16T06:53:07.324Z,0.20
2022-12-16T06:54:07.315Z,0.19
2022-12-16T06:55:07.285Z,0.17
2022-12-16T06:56:07.286Z,0.17
2022-12-16T06:57:07.297Z,0.16
2022-12-16T06:58:10.038Z,0.15
2022-12-16T06:59:07.316Z,0.15
2022-12-16T07:00:07.247Z,0.17
2022-12-16T07:01:07.299Z,0.17
2022-12-16T07:02:07.317Z,0.17
2022-12-16T07:03:07.304Z,0.17
2022-12-16T07:04:07.207Z,0.15
2022-12-16T07:05:07.225Z,0.10
2022-12-16T07:06:07.731Z,0.08
2022-12-16T07:07:07.158Z,0.13
2022-12-16T07:08:07.165Z,0.16
2022-12-16T07:09:07.155Z,0.16
2022-12-16T07:10:07.126Z,0.10
2022-12-16T07:11:16.021Z,0.10
2022-12-16T07:12:08.105Z,0.12
2022-12-16T07:13:07.116Z,0.12
2022-12-16T07:14:07.126Z,0.08
2022-12-16T07:15:08.053Z,0.07
2022-12-16T07:16:07.118Z,0.07
2022-12-16T07:17:07.495Z,0.08
2022-12-16T07:18:07.066Z,0.12
2022-12-16T07:19:07.046Z,0.13
2022-12-16T07:20:07.056Z,0.12
2022-12-16T07:21:07.016Z,0.07
2022-12-16T07:22:07.018Z,0.07
2022-12-16T07:23:12.128Z,0.07
2022-12-16T07:24:07.986Z,0.04
2022-12-16T07:25:07.012Z,0.02
2022-12-16T07:26:06.979Z,0.02
2022-12-16T07:27:07.687Z,0.02
2022-12-16T07:28:10.827Z,0.02
2022-12-16T07:29:08.295Z,0.05
2022-12-16T07:30:06.979Z,0.05
2022-12-16T07:31:07.620Z,0.07
2022-12-16T07:32:06.941Z,0.04
2022-12-16T07:33:07.618Z,0.04
2022-12-16T07:34:06.895Z,0.02
2022-12-16T07:35:06.904Z,0.01
2022-12-16T07:36:06.863Z,0.02
2022-12-16T07:37:06.853Z,0.04
2022-12-16T07:38:06.848Z,0.08
2022-12-16T07:39:06.837Z,0.08
2022-12-16T07:40:06.828Z,0.13
2022-12-16T07:41:07.583Z,0.12
2022-12-16T07:42:06.796Z,0.15
2022-12-16T07:43:06.807Z,0.15
2022-12-16T07:44:06.830Z,0.10
2022-12-16T07:45:06.806Z,0.07
2022-12-16T07:46:06.831Z,0.04
2022-12-16T07:47:06.746Z,0.02
2022-12-16T07:48:06.748Z,0.02
2022-12-16T07:49:06.740Z,0.02
2022-12-16T07:50:06.727Z,0.02
2022-12-16T07:51:06.729Z,0.04
2022-12-16T07:52:06.717Z,0.05
2022-12-16T07:53:06.696Z,0.08
2022-12-16T07:54:06.702Z,0.07
2022-12-16T07:55:06.668Z,0.10
2022-12-16T07:56:06.666Z,0.10
2022-12-16T07:57:06.667Z,0.12
2022-12-16T07:58:06.627Z,0.15
2022-12-16T07:59:06.696Z,0.10
2022-12-16T08:00:06.615Z,0.08
2022-12-16T08:01:09.570Z,0.10
2022-12-16T08:02:06.810Z,0.13
2022-12-16T08:03:06.715Z,0.12
2022-12-16T08:04:06.712Z,0.13
2022-12-16T08:05:06.566Z,0.12
2022-12-16T08:06:06.570Z,0.13
2022-12-16T08:07:06.557Z,0.13
2022-12-16T08:08:06.528Z,0.19
2022-12-16T08:09:06.615Z,0.20
2022-12-16T08:10:06.556Z,0.23
2022-12-16T08:11:06.516Z,0.25
2022-12-16T08:12:06.495Z,0.25
2022-12-16T08:13:06.477Z,0.25
2022-12-16T08:14:06.512Z,0.25
2022-12-16T08:15:06.460Z,0.28
2022-12-16T08:16:06.456Z,0.30
2022-12-16T08:17:06.565Z,0.31
2022-12-16T08:18:06.423Z,0.31
2022-12-16T08:20:07.409Z,0.37
2022-12-16T08:21:06.407Z,0.37
2022-12-16T08:22:06.398Z,0.37
2022-12-16T08:23:06.395Z,0.37
2022-12-16T08:24:06.406Z,0.33
2022-12-16T08:25:06.367Z,0.31
2022-12-16T08:26:06.339Z,0.31
2022-12-16T08:27:06.337Z,0.30
2022-12-16T08:28:06.328Z,0.28
2022-12-16T08:29:27.297Z,0.28
2022-12-16T08:30:07.332Z,0.31
2022-12-16T08:31:06.345Z,0.30
2022-12-16T08:32:06.297Z,0.30
2022-12-16T08:33:16.592Z,0.28
2022-12-16T08:34:07.266Z,0.26
2022-12-16T08:35:06.336Z,0.28
2022-12-16T08:36:06.287Z,0.28
2022-12-16T08:37:06.227Z,0.28
2022-12-16T08:38:12.052Z,0.30
2022-12-16T08:39:07.206Z,0.28
2022-12-16T08:40:33.663Z,0.30
2022-12-16T08:41:07.217Z,0.33
2022-12-16T08:42:06.198Z,0.31
2022-12-16T08:43:10.968Z,0.30
2022-12-16T08:44:07.170Z,0.26
2022-12-16T08:45:06.157Z,0.25
2022-12-16T08:46:06.227Z,0.25
2022-12-16T08:47:06.158Z,0.28
2022-12-16T08:48:06.126Z,0.26
2022-12-16T08:49:06.224Z,0.23
2022-12-16T08:50:06.196Z,0.22
2022-12-16T08:51:06.098Z,0.20
2022-12-16T08:52:06.077Z,0.22
2022-12-16T08:53:06.079Z,0.22
2022-12-16T08:54:06.067Z,0.19
2022-12-16T08:55:06.065Z,0.19
2022-12-16T08:56:06.065Z,0.19
2022-12-16T08:57:06.025Z,0.22
2022-12-16T08:58:06.017Z,0.22
2022-12-16T08:59:06.112Z,0.22
2022-12-16T09:00:06.010Z,0.20
2022-12-16T09:01:07.673Z,0.23
2022-12-16T09:02:06.121Z,0.25
2022-12-16T09:03:06.263Z,0.26
2022-12-16T09:04:06.163Z,0.28
2022-12-16T09:05:06.006Z,0.28
2022-12-16T09:06:05.928Z,0.28
2022-12-16T09:07:05.922Z,0.30
2022-12-16T09:08:06.045Z,0.33
2022-12-16T09:09:06.004Z,0.33
2022-12-16T09:10:05.910Z,0.35
2022-12-16T09:11:05.916Z,0.34
2022-12-16T09:12:05.879Z,0.33
2022-12-16T09:13:05.872Z,0.34
2022-12-16T09:14:05.978Z,0.38
2022-12-16T09:15:05.839Z,0.37
2022-12-16T09:16:05.930Z,0.41
2022-12-16T09:17:05.848Z,0.38
2022-12-16T09:18:05.831Z,0.41
2022-12-16T09:19:05.794Z,0.43
2022-12-16T09:20:05.790Z,0.44
2022-12-16T09:21:05.878Z,0.51
2022-12-16T09:22:05.779Z,0.51
2022-12-16T09:23:05.762Z,0.53
2022-12-16T09:24:05.872Z,0.53
2022-12-16T09:25:05.767Z,0.53
2022-12-16T09:26:05.764Z,0.45
2022-12-16T09:27:05.737Z,0.45
2022-12-16T09:28:05.706Z,0.41
2022-12-16T09:29:05.688Z,0.41
2022-12-16T09:30:05.699Z,0.44
2022-12-16T09:31:05.709Z,0.48
2022-12-16T09:32:05.678Z,0.51
2022-12-16T09:33:05.679Z,0.51
2022-12-16T09:34:05.787Z,0.52
2022-12-16T09:35:10.128Z,0.56
2022-12-16T09:36:06.631Z,0.57
2022-12-16T09:37:06.620Z,0.57
2022-12-16T09:38:05.618Z,0.56
2022-12-16T09:39:05.834Z,0.57
2022-12-16T09:40:05.598Z,0.59
2022-12-16T09:41:05.728Z,0.60
2022-12-16T09:42:05.572Z,0.64
2022-12-16T09:43:06.329Z,0.64
2022-12-16T09:44:05.552Z,0.64
2022-12-16T09:45:05.561Z,0.62
2022-12-16T09:46:05.654Z,0.59
2022-12-16T09:47:08.520Z,0.57
2022-12-16T09:48:05.518Z,0.51
2022-12-16T09:49:05.499Z,0.52
2022-12-16T09:50:05.510Z,0.56
2022-12-16T09:51:05.461Z,0.56
2022-12-16T09:52:05.571Z,0.57
2022-12-16T09:53:05.459Z,0.53
2022-12-16T09:54:05.469Z,0.56
2022-12-16T09:55:05.441Z,0.59
2022-12-16T09:56:05.462Z,0.57
2022-12-16T09:57:05.409Z,0.53
2022-12-16T09:58:05.391Z,0.53
2022-12-16T09:59:05.399Z,0.59
2022-12-16T10:00:05.370Z,0.62
2022-12-16T10:01:05.405Z,0.67
2022-12-16T10:02:05.621Z,0.67
2022-12-16T10:03:07.133Z,0.71
2022-12-16T10:04:05.387Z,0.72
2022-12-16T10:05:05.338Z,0.72
2022-12-16T10:06:05.315Z,0.70
2022-12-16T10:07:05.332Z,0.60
2022-12-16T10:08:05.321Z,0.57
2022-12-16T10:09:05.280Z,0.62
2022-12-16T10:10:05.388Z,0.62
2022-12-16T10:11:05.267Z,0.63
2022-12-16T10:12:05.249Z,0.63
2022-12-16T10:13:05.252Z,0.63
2022-12-16T10:14:05.239Z,0.63
2022-12-16T10:15:05.255Z,0.62
2022-12-16T10:16:05.295Z,0.67
2022-12-16T10:17:05.200Z,0.64
2022-12-16T10:18:05.275Z,0.67
2022-12-16T10:19:05.190Z,0.72
2022-12-16T10:20:09.105Z,0.75
2022-12-16T10:21:05.223Z,0.72
2022-12-16T10:22:05.150Z,0.71
2022-12-16T10:23:05.130Z,0.70
2022-12-16T10:24:05.121Z,0.75
2022-12-16T10:25:05.120Z,0.74
2022-12-16T10:26:05.110Z,0.77
2022-12-16T10:27:05.084Z,0.78
2022-12-16T10:28:05.081Z,0.74
2022-12-16T10:29:05.076Z,0.78
2022-12-16T10:30:05.081Z,0.82
2022-12-16T10:31:05.116Z,0.84
2022-12-16T10:32:05.053Z,0.84
2022-12-16T10:33:05.068Z,0.89
2022-12-16T10:34:05.045Z,0.92
2022-12-16T10:35:05.021Z,0.89
2022-12-16T10:36:05.022Z,0.86
2022-12-16T10:37:10.973Z,0.89
2022-12-16T10:38:05.994Z,0.89
2022-12-16T10:39:05.020Z,0.86
2022-12-16T10:40:04.972Z,0.89
2022-12-16T10:41:04.943Z,0.92
2022-12-16T10:42:04.952Z,0.95
2022-12-16T10:43:04.941Z,0.93
2022-12-16T10:44:04.920Z,0.93
2022-12-16T10:45:04.903Z,0.93
2022-12-16T10:46:04.981Z,0.95
2022-12-16T10:47:04.892Z,0.95
2022-12-16T10:48:04.913Z,0.95
2022-12-16T10:49:04.913Z,0.96
2022-12-16T10:50:04.923Z,1.00
2022-12-16T10:51:04.849Z,1.00
2022-12-16T10:52:08.419Z,0.99
2022-12-16T10:53:04.842Z,1.02
2022-12-16T10:54:04.812Z,1.08
2022-12-16T10:55:04.811Z,1.11
2022-12-16T10:56:04.791Z,1.16
2022-12-16T10:57:04.792Z,1.20
2022-12-16T10:58:04.781Z,1.20
2022-12-16T10:59:04.770Z,1.26
2022-12-16T11:00:04.776Z,1.29
2022-12-16T11:01:04.759Z,1.28
2022-12-16T11:02:04.911Z,1.31
2022-12-16T11:03:04.976Z,1.31
2022-12-16T11:04:04.781Z,1.31
2022-12-16T11:05:04.712Z,1.31
2022-12-16T11:06:04.700Z,1.26
2022-12-16T11:07:04.681Z,1.29
2022-12-16T11:08:04.705Z,1.32
2022-12-16T11:09:04.651Z,1.32
2022-12-16T11:10:04.665Z,1.31
2022-12-16T11:11:04.635Z,1.28
2022-12-16T11:12:04.631Z,1.31
2022-12-16T11:13:04.631Z,1.26
2022-12-16T11:14:04.623Z,1.31
2022-12-16T11:15:28.228Z,1.31
2022-12-16T11:16:05.685Z,1.32
2022-12-16T11:17:04.582Z,1.26
2022-12-16T11:18:04.569Z,1.31
2022-12-16T11:19:04.551Z,1.28
2022-12-16T11:20:04.551Z,1.25
2022-12-16T11:21:09.134Z,1.17
2022-12-16T11:22:05.541Z,1.16
2022-12-16T11:23:04.522Z,1.14
2022-12-16T11:24:04.503Z,1.20
2022-12-16T11:25:04.492Z,1.21
2022-12-16T11:26:04.483Z,1.18
2022-12-16T11:27:04.473Z,1.17
2022-12-16T11:28:04.466Z,1.16
2022-12-16T11:29:04.472Z,1.13
2022-12-16T11:30:04.778Z,1.16
2022-12-16T11:31:04.514Z,1.17
2022-12-16T11:32:04.489Z,1.18
2022-12-16T11:33:04.421Z,1.21
2022-12-16T11:34:04.411Z,1.28
2022-12-16T11:35:04.395Z,1.32
2022-12-16T11:36:04.403Z,1.35
2022-12-16T11:37:04.382Z,1.38
2022-12-16T11:38:04.387Z,1.43
2022-12-16T11:39:04.353Z,1.46
2022-12-16T11:40:04.333Z,1.46
2022-12-16T11:41:04.342Z,1.52
2022-12-16T11:42:04.335Z,1.56
2022-12-16T11:43:10.474Z,1.63
2022-12-16T11:44:05.301Z,1.64
2022-12-16T11:45:04.282Z,1.57
2022-12-16T11:46:04.320Z,1.57
2022-12-16T11:47:04.346Z,1.56
2022-12-16T11:48:04.263Z,1.61
2022-12-16T11:49:04.255Z,1.70
2022-12-16T11:50:04.249Z,1.75
2022-12-16T11:51:04.255Z,1.81
2022-12-16T11:52:34.893Z,1.81
2022-12-16T11:53:05.213Z,1.77
2022-12-16T11:54:04.224Z,1.74
2022-12-16T11:55:04.181Z,1.71
2022-12-16T11:56:08.901Z,1.67
2022-12-16T11:57:05.172Z,1.70
2022-12-16T11:58:04.162Z,1.65
2022-12-16T11:59:04.172Z,1.61
2022-12-16T12:00:04.142Z,1.65
2022-12-16T12:01:04.120Z,1.61
2022-12-16T12:02:04.196Z,1.65
2022-12-16T12:03:04.207Z,1.72
2022-12-16T12:04:04.301Z,1.86
2022-12-16T12:05:04.072Z,2.05
2022-12-16T12:06:04.063Z,2.48
2022-12-16T12:07:04.093Z,2.53
2022-12-16T12:08:04.052Z,2.45
2022-12-16T12:09:04.054Z,2.41
2022-12-16T12:10:04.037Z,2.36
2022-12-16T12:11:04.023Z,2.30
2022-12-16T12:12:04.013Z,2.26
2022-12-16T12:13:04.020Z,2.26
2022-12-16T12:14:03.984Z,2.30
2022-12-16T12:15:03.975Z,2.32
2022-12-16T12:16:04.028Z,2.38
2022-12-16T12:17:03.970Z,2.47
2022-12-16T12:18:03.944Z,2.55
2022-12-16T12:19:03.935Z,2.53
2022-12-16T12:20:03.914Z,2.43
2022-12-16T12:21:03.921Z,2.38
2022-12-16T12:22:03.936Z,2.30
2022-12-16T12:23:03.894Z,2.19
2022-12-16T12:24:03.875Z,2.15
2022-12-16T12:25:03.968Z,2.09
2022-12-16T12:26:03.874Z,2.07
2022-12-16T12:27:03.863Z,2.08
2022-12-16T12:28:03.833Z,2.09
2022-12-16T12:29:03.824Z,2.09
2022-12-16T12:30:03.817Z,2.04
2022-12-16T12:31:03.853Z,1.93
2022-12-16T12:32:03.877Z,1.95
2022-12-16T12:33:03.785Z,1.98
2022-12-16T12:34:03.805Z,1.89
2022-12-16T12:35:03.785Z,1.90
2022-12-16T12:36:03.774Z,1.81
2022-12-16T12:37:03.749Z,1.77
2022-12-16T12:38:03.764Z,1.75
2022-12-16T12:39:03.737Z,1.72
2022-12-16T12:40:03.752Z,1.68
2022-12-16T12:41:03.717Z,1.64
2022-12-16T12:42:03.695Z,1.64
2022-12-16T12:43:03.725Z,1.64
2022-12-16T12:44:03.687Z,1.65
2022-12-16T12:45:03.676Z,1.68
2022-12-16T12:46:03.655Z,1.65
2022-12-16T12:47:03.735Z,1.63
2022-12-16T12:48:03.676Z,1.63
2022-12-16T12:49:03.625Z,1.60
2022-12-16T12:50:03.614Z,1.60
2022-12-16T12:51:03.596Z,1.52
2022-12-16T12:52:03.604Z,1.54
2022-12-16T12:53:03.625Z,1.57
2022-12-16T12:54:03.584Z,1.57
2022-12-16T12:55:03.567Z,1.57
2022-12-16T12:56:03.564Z,1.54
2022-12-16T12:57:03.584Z,1.47
2022-12-16T12:58:03.560Z,1.50
2022-12-16T12:59:03.554Z,1.47
2022-12-16T13:00:03.519Z,1.52
2022-12-16T13:01:03.743Z,1.46
2022-12-16T13:02:03.847Z,1.47
2022-12-16T13:03:03.587Z,1.53
2022-12-16T13:04:03.468Z,1.60
2022-12-16T13:05:03.465Z,1.61
2022-12-16T13:06:03.477Z,1.63
2022-12-16T13:07:03.436Z,1.64
2022-12-16T13:08:03.503Z,1.67
2022-12-16T13:09:03.426Z,1.68
2022-12-16T13:10:03.416Z,1.71
2022-12-16T13:11:03.386Z,1.72
2022-12-16T13:12:03.405Z,1.71
2022-12-16T13:13:03.381Z,1.74
2022-12-16T13:14:03.363Z,1.77
2022-12-16T13:15:03.377Z,1.79
2022-12-16T13:16:03.377Z,1.77
2022-12-16T13:17:03.344Z,1.75
2022-12-16T13:18:03.412Z,1.72
2022-12-16T13:19:06.578Z,1.72